Time;durP1;ratioP1;P1;durP2;ratioP2;P2;SDS_P1;SDS_P2;PMS_P1;PMS_P2;Temp;Humidity;BMP_temperature;BMP_pressure;BME280_temperature;BME280_humidity;BME280_pressure;Samples;Min_cycle;Max_cycle;Signal;HPM_P1;HPM_P2
2023/03/05 00:02:06;;;;;;;8.95;1.15;;;7.70;97.90;;;;;;5056028;28;20025;-73
2023/03/05 00:04:32;;;;;;;7.97;2.03;;;7.70;97.70;;;;;;5073957;28;20021;-74
2023/03/05 00:06:57;;;;;;;13.30;1.63;;;7.70;97.70;;;;;;5072466;28;20162;-74
2023/03/05 00:09:23;;;;;;;13.93;2.38;;;7.70;97.90;;;;;;5055769;28;20029;-74
2023/03/05 00:11:48;;;;;;;9.75;1.48;;;7.70;98.00;;;;;;5072547;28;20033;-74
2023/03/05 00:14:14;;;;;;;8.07;1.27;;;7.70;98.10;;;;;;5072216;28;20035;-74
2023/03/05 00:16:40;;;;;;;14.32;2.60;;;7.70;98.00;;;;;;5072503;28;20039;-78
2023/03/05 00:19:06;;;;;;;11.02;2.97;;;7.70;98.10;;;;;;5073610;28;20480;-75
2023/03/05 00:21:40;;;;;;;10.60;1.60;;;7.70;98.20;;;;;;5072749;28;20119;-73
2023/03/05 00:24:17;;;;;;;11.23;1.40;;;7.70;98.20;;;;;;5073701;28;20035;-75
2023/03/05 00:26:44;;;;;;;8.85;1.65;;;7.60;98.30;;;;;;5073651;28;20036;-75
2023/03/05 00:29:13;;;;;;;13.60;1.63;;;7.60;98.40;;;;;;5073744;28;20032;-74
2023/03/05 00:31:38;;;;;;;11.52;1.65;;;7.60;98.50;;;;;;5055570;28;20140;-75
2023/03/05 00:34:08;;;;;;;11.32;1.27;;;7.60;98.60;;;;;;5055409;28;20143;-74
2023/03/05 00:36:34;;;;;;;7.35;1.42;;;7.70;98.50;;;;;;5073914;28;20024;-75
2023/03/05 00:39:00;;;;;;;8.15;1.55;;;7.70;98.50;;;;;;5072261;28;20035;-74
2023/03/05 00:41:26;;;;;;;7.00;1.13;;;7.70;98.50;;;;;;5072005;28;20448;-74
2023/03/05 00:43:51;;;;;;;9.85;1.23;;;7.70;98.40;;;;;;5073333;28;20028;-75
2023/03/05 00:46:17;;;;;;;15.23;2.33;;;7.70;98.40;;;;;;5071969;28;20021;-75
2023/03/05 00:48:43;;;;;;;8.50;1.50;;;7.80;98.50;;;;;;5073148;28;20021;-75
2023/03/05 00:51:08;;;;;;;10.90;1.95;;;7.80;98.40;;;;;;5072945;28;20029;-74
2023/03/05 00:53:34;;;;;;;14.23;1.75;;;7.80;98.30;;;;;;5056311;28;20036;-74
2023/03/05 00:56:00;;;;;;;10.23;1.60;;;7.80;98.40;;;;;;5072470;28;20500;-74
2023/03/05 00:58:26;;;;;;;9.05;1.85;;;7.80;98.40;;;;;;5073362;28;20039;-74
2023/03/05 01:00:51;;;;;;;7.43;1.80;;;7.80;98.50;;;;;;5072198;28;20024;-73
2023/03/05 01:03:18;;;;;;;9.23;2.00;;;7.80;98.60;;;;;;5072966;28;20075;-74
2023/03/05 01:05:43;;;;;;;15.90;2.42;;;7.80;98.90;;;;;;5055292;28;20036;-73
2023/03/05 01:08:09;;;;;;;9.07;1.45;;;7.70;99.20;;;;;;5055566;28;20028;-74
2023/03/05 01:10:35;;;;;;;7.65;1.38;;;7.70;99.40;;;;;;5071779;28;20135;-74
2023/03/05 01:13:01;;;;;;;10.93;1.63;;;7.70;99.60;;;;;;5072918;28;20420;-74
2023/03/05 01:15:26;;;;;;;11.13;1.40;;;7.80;99.50;;;;;;5054870;28;20474;-74
2023/03/05 01:17:52;;;;;;;7.88;1.33;;;7.90;99.40;;;;;;5055187;28;20040;-74
2023/03/05 01:20:21;;;;;;;9.98;1.73;;;7.90;99.30;;;;;;5072951;28;20032;-74
2023/03/05 01:22:47;;;;;;;9.10;1.23;;;8.00;99.20;;;;;;5072909;28;20433;-74
2023/03/05 01:25:14;;;;;;;15.30;1.73;;;8.10;99.10;;;;;;5072647;28;20492;-74
2023/03/05 01:27:40;;;;;;;9.93;1.38;;;8.10;98.80;;;;;;5073048;28;20079;-74
2023/03/05 01:30:07;;;;;;;9.13;1.00;;;8.10;98.60;;;;;;5076663;28;20028;-74
2023/03/05 01:32:33;;;;;;;7.18;1.17;;;8.10;98.60;;;;;;5096691;28;20048;-74
2023/03/05 01:35:00;;;;;;;8.32;1.38;;;8.10;98.60;;;;;;5045634;28;20092;-74
2023/03/05 01:37:27;;;;;;;10.85;1.27;;;8.10;98.70;;;;;;5097189;28;20480;-74
2023/03/05 01:39:53;;;;;;;15.80;1.48;;;8.10;98.60;;;;;;5078747;28;20566;-74
2023/03/05 01:42:19;;;;;;;8.50;1.10;;;8.20;98.60;;;;;;5096996;28;20117;-74
2023/03/05 01:45:18;;;;;;;9.38;1.23;;;8.10;98.50;;;;;;5078672;28;20126;-74
2023/03/05 01:47:44;;;;;;;8.15;1.25;;;8.10;98.40;;;;;;5045777;28;20092;-75
2023/03/05 01:50:15;;;;;;;5.85;1.08;;;8.10;98.20;;;;;;5062069;28;20032;-75
2023/03/05 01:52:45;;;;;;;11.27;1.38;;;8.10;98.10;;;;;;5078300;28;20155;-74
2023/03/05 01:55:16;;;;;;;5.18;0.90;;;8.10;98.10;;;;;;5096826;28;20468;-75
2023/03/05 01:57:47;;;;;;;5.47;0.93;;;8.10;98.20;;;;;;5078726;28;20024;-75
2023/03/05 02:00:24;;;;;;;9.52;1.48;;;8.10;98.10;;;;;;5096598;28;20028;-75
2023/03/05 02:02:51;;;;;;;7.10;0.93;;;8.10;98.00;;;;;;5078410;28;20556;-74
2023/03/05 02:05:27;;;;;;;5.95;1.20;;;8.10;98.00;;;;;;5096714;28;20085;-75
2023/03/05 02:07:55;;;;;;;5.35;1.08;;;8.10;97.90;;;;;;5096235;28;20055;-75
2023/03/05 02:10:29;;;;;;;9.90;1.35;;;8.10;97.90;;;;;;5096123;28;20024;-75
2023/03/05 02:13:01;;;;;;;10.02;1.55;;;8.00;97.90;;;;;;5078801;28;20036;-75
2023/03/05 02:15:28;;;;;;;5.15;0.80;;;7.90;97.90;;;;;;5095977;28;20088;-75
2023/03/05 02:17:54;;;;;;;8.10;1.33;;;7.90;98.00;;;;;;5096295;28;20468;-75
2023/03/05 02:20:23;;;;;;;7.55;1.02;;;7.80;98.10;;;;;;5096185;28;20078;-75
2023/03/05 02:22:49;;;;;;;9.85;1.27;;;7.80;98.10;;;;;;5077880;28;20024;-75
2023/03/05 02:25:16;;;;;;;11.38;1.33;;;7.70;98.20;;;;;;5078083;28;20085;-74
2023/03/05 02:27:48;;;;;;;10.10;1.20;;;7.70;98.30;;;;;;5077864;28;20035;-73
2023/03/05 02:30:13;;;;;;;9.02;1.10;;;7.70;98.30;;;;;;5096091;28;20024;-75
2023/03/05 02:32:39;;;;;;;8.45;1.00;;;7.60;98.40;;;;;;5096450;28;20130;-74
2023/03/05 02:35:05;;;;;;;7.60;1.90;;;7.60;98.40;;;;;;5077538;28;20106;-74
2023/03/05 02:37:31;;;;;;;8.57;1.02;;;7.50;98.50;;;;;;5096090;28;20073;-75
2023/03/05 02:39:56;;;;;;;10.20;1.70;;;7.60;98.50;;;;;;5079430;28;20032;-75
2023/03/05 02:42:22;;;;;;;10.48;1.23;;;7.50;98.50;;;;;;5085698;28;20035;-73
2023/03/05 02:44:48;;;;;;;5.95;1.23;;;7.50;98.60;;;;;;5081647;28;20040;-74
2023/03/05 02:47:13;;;;;;;11.25;1.27;;;7.40;98.60;;;;;;5044408;28;20033;-74
2023/03/05 02:49:39;;;;;;;4.45;0.75;;;7.40;98.80;;;;;;5096037;28;20020;-74
2023/03/05 02:52:05;;;;;;;7.63;1.08;;;7.30;98.80;;;;;;5077720;28;20021;-74
2023/03/05 02:54:30;;;;;;;8.10;1.27;;;7.30;98.90;;;;;;5077297;28;20055;-73
2023/03/05 02:56:56;;;;;;;9.68;1.42;;;7.30;99.00;;;;;;5060727;28;20077;-73
2023/03/05 02:59:22;;;;;;;6.03;1.30;;;7.30;99.10;;;;;;5044429;28;20028;-74
2023/03/05 03:01:47;;;;;;;8.65;0.90;;;7.30;99.10;;;;;;5077208;28;20538;-74
2023/03/05 03:04:13;;;;;;;10.35;1.45;;;7.30;99.10;;;;;;5078241;28;20040;-73
2023/03/05 03:06:38;;;;;;;17.60;3.38;;;7.40;99.10;;;;;;5060769;28;20379;-73
2023/03/05 03:09:04;;;;;;;9.23;1.77;;;7.40;99.10;;;;;;5060949;28;20024;-74
2023/03/05 03:11:30;;;;;;;6.55;1.13;;;7.40;99.10;;;;;;5095347;28;20380;-74
2023/03/05 03:13:55;;;;;;;6.35;1.40;;;7.30;99.20;;;;;;5060199;28;20081;-73
2023/03/05 03:16:21;;;;;;;10.90;1.75;;;7.30;99.30;;;;;;5077535;28;20452;-73
2023/03/05 03:18:47;;;;;;;8.00;1.30;;;7.30;99.30;;;;;;5077368;28;20028;-74
2023/03/05 03:21:22;;;;;;;12.48;1.42;;;7.30;99.30;;;;;;5060432;28;20028;-74
2023/03/05 03:23:48;;;;;;;9.23;1.25;;;7.30;99.30;;;;;;5095022;28;20051;-74
2023/03/05 03:26:13;;;;;;;9.55;1.73;;;7.30;99.30;;;;;;5095192;28;20028;-73
2023/03/05 03:28:39;;;;;;;7.18;1.40;;;7.30;99.30;;;;;;5060169;28;20029;-74
2023/03/05 03:31:05;;;;;;;11.15;1.80;;;7.30;99.60;;;;;;5073236;28;20048;-74
2023/03/05 03:33:30;;;;;;;11.30;1.90;;;7.20;99.50;;;;;;5073436;28;20036;-74
2023/03/05 03:35:56;;;;;;;8.25;1.45;;;7.10;99.60;;;;;;5073400;28;20453;-74
2023/03/05 03:38:22;;;;;;;12.55;3.10;;;7.10;99.80;;;;;;5073077;28;20029;-74
2023/03/05 03:40:47;;;;;;;10.20;1.70;;;7.00;99.80;;;;;;5073563;28;20060;-74
2023/03/05 03:43:13;;;;;;;11.38;2.13;;;7.00;99.90;;;;;;5073320;28;20119;-74
2023/03/05 03:45:43;;;;;;;11.23;1.80;;;6.90;99.90;;;;;;5073081;28;20427;-74
2023/03/05 03:48:09;;;;;;;8.90;2.03;;;6.90;99.90;;;;;;5072968;28;20052;-74
2023/03/05 03:50:41;;;;;;;8.52;1.60;;;6.90;99.90;;;;;;5073141;28;20033;-74
2023/03/05 03:53:07;;;;;;;10.02;1.50;;;6.90;99.90;;;;;;5074030;28;20036;-74
2023/03/05 03:55:33;;;;;;;13.60;1.88;;;6.90;99.90;;;;;;5072859;28;20115;-74
2023/03/05 03:57:59;;;;;;;13.85;2.20;;;7.00;99.90;;;;;;5073979;28;20421;-74
2023/03/05 04:00:25;;;;;;;8.35;1.77;;;7.00;99.90;;;;;;5072695;28;20044;-74
2023/03/05 04:02:50;;;;;;;11.73;1.98;;;7.00;99.90;;;;;;5074293;28;20654;-74
2023/03/05 04:05:16;;;;;;;13.32;2.15;;;7.00;99.90;;;;;;5073749;28;20041;-73
2023/03/05 04:07:42;;;;;;;10.02;1.65;;;7.00;99.90;;;;;;5074286;28;20055;-74
2023/03/05 04:10:08;;;;;;;11.73;2.03;;;6.90;99.90;;;;;;5072958;28;20177;-74
2023/03/05 04:12:34;;;;;;;11.18;1.98;;;6.90;99.90;;;;;;5073848;28;20029;-74
2023/03/05 04:14:59;;;;;;;12.55;2.33;;;6.90;99.90;;;;;;5072578;28;20103;-74
2023/03/05 04:17:25;;;;;;;11.38;2.17;;;6.80;99.90;;;;;;5056106;28;20040;-74
2023/03/05 04:19:51;;;;;;;17.70;2.65;;;6.80;99.90;;;;;;5074128;28;20045;-74
2023/03/05 04:22:17;;;;;;;10.50;2.03;;;6.70;99.90;;;;;;5073715;28;20039;-73
2023/03/05 04:24:43;;;;;;;10.23;1.83;;;6.70;99.90;;;;;;5074425;28;20103;-74
2023/03/05 04:27:09;;;;;;;11.15;2.17;;;6.80;99.90;;;;;;5074058;28;20385;-74
2023/03/05 04:29:35;;;;;;;9.90;2.60;;;6.80;99.90;;;;;;5074345;28;20497;-74
2023/03/05 04:32:00;;;;;;;8.25;1.67;;;6.70;99.90;;;;;;5087834;28;20079;-74
2023/03/05 04:34:26;;;;;;;10.13;1.85;;;6.80;99.90;;;;;;5059116;28;20456;-74
2023/03/05 04:36:52;;;;;;;9.25;1.67;;;6.80;99.90;;;;;;5075671;28;20410;-74
2023/03/05 04:39:19;;;;;;;9.57;1.70;;;6.90;99.90;;;;;;5059478;28;20081;-74
2023/03/05 04:41:46;;;;;;;10.38;1.80;;;6.80;99.90;;;;;;5058765;28;20105;-74
2023/03/05 04:44:12;;;;;;;8.50;1.73;;;6.80;99.90;;;;;;5075495;28;20029;-74
2023/03/05 04:46:38;;;;;;;12.43;1.98;;;6.70;99.90;;;;;;5075770;28;20051;-74
2023/03/05 04:49:03;;;;;;;9.07;1.52;;;6.70;99.90;;;;;;5093213;28;20381;-73
2023/03/05 04:51:29;;;;;;;9.90;1.80;;;6.70;99.90;;;;;;5093739;28;20472;-74
2023/03/05 04:53:55;;;;;;;8.65;1.50;;;6.80;99.90;;;;;;5093603;28;20028;-74
2023/03/05 04:56:20;;;;;;;11.48;1.83;;;6.70;99.90;;;;;;5093352;28;20380;-74
2023/03/05 04:58:46;;;;;;;8.30;1.40;;;6.70;99.90;;;;;;5093098;28;20062;-74
2023/03/05 05:01:12;;;;;;;8.02;1.55;;;6.60;99.90;;;;;;5059294;28;20032;-74
2023/03/05 05:03:37;;;;;;;9.43;1.30;;;6.60;99.90;;;;;;5092226;28;20107;-74
2023/03/05 05:06:03;;;;;;;5.55;1.13;;;6.60;99.90;;;;;;5093551;28;20032;-74
2023/03/05 05:08:29;;;;;;;8.38;1.42;;;6.60;99.90;;;;;;5075130;28;20357;-74
2023/03/05 05:11:06;;;;;;;9.55;1.38;;;6.60;99.90;;;;;;5075095;28;20373;-74
2023/03/05 05:13:33;;;;;;;8.07;1.25;;;6.60;99.90;;;;;;5092899;28;20079;-74
2023/03/05 05:15:58;;;;;;;4.70;1.15;;;6.50;99.90;;;;;;5093474;28;20032;-74
2023/03/05 05:18:26;;;;;;;8.00;1.13;;;6.50;99.90;;;;;;5058540;28;20085;-74
2023/03/05 05:20:51;;;;;;;7.55;1.35;;;6.60;99.90;;;;;;5093481;28;20024;-74
2023/03/05 05:23:18;;;;;;;5.18;1.25;;;6.50;99.90;;;;;;5075436;28;20468;-74
2023/03/05 05:25:44;;;;;;;9.25;1.05;;;6.40;99.90;;;;;;5074887;28;20036;-74
2023/03/05 05:28:10;;;;;;;8.13;1.20;;;6.40;99.90;;;;;;5074825;28;20384;-74
2023/03/05 05:30:36;;;;;;;7.95;1.17;;;6.40;99.90;;;;;;5092580;28;20097;-74
2023/03/05 05:33:02;;;;;;;5.80;1.10;;;6.40;99.90;;;;;;5093113;28;20032;-74
2023/03/05 05:35:27;;;;;;;7.85;1.15;;;6.40;99.90;;;;;;5075063;28;20032;-74
2023/03/05 05:37:53;;;;;;;8.00;1.20;;;6.40;99.90;;;;;;5093242;28;20467;-74
2023/03/05 05:40:19;;;;;;;6.10;1.05;;;6.50;99.90;;;;;;5058702;28;20043;-73
2023/03/05 05:42:45;;;;;;;5.93;0.93;;;6.50;99.90;;;;;;5074717;28;20024;-74
2023/03/05 05:45:11;;;;;;;6.68;0.90;;;6.50;99.90;;;;;;5092830;28;20032;-74
2023/03/05 05:47:36;;;;;;;5.13;1.08;;;6.50;99.90;;;;;;5074748;28;20023;-74
2023/03/05 05:50:04;;;;;;;7.03;1.25;;;6.50;99.90;;;;;;5092873;28;20032;-74
2023/03/05 05:52:29;;;;;;;6.13;1.00;;;6.50;99.90;;;;;;5058087;28;20035;-74
2023/03/05 05:54:55;;;;;;;9.82;1.10;;;6.50;99.90;;;;;;5092430;28;20020;-74
2023/03/05 05:57:21;;;;;;;5.95;1.10;;;6.50;99.90;;;;;;5058781;28;20140;-74
2023/03/05 05:59:46;;;;;;;9.05;1.30;;;6.50;99.90;;;;;;5092784;28;20368;-74
2023/03/05 06:02:12;;;;;;;7.90;0.93;;;6.40;99.90;;;;;;5074570;28;20109;-74
2023/03/05 06:04:39;;;;;;;8.75;1.30;;;6.40;99.90;;;;;;5058505;28;20043;-73
2023/03/05 06:07:05;;;;;;;9.57;1.88;;;6.40;99.90;;;;;;5074565;28;20028;-74
2023/03/05 06:09:30;;;;;;;7.40;1.00;;;6.40;99.90;;;;;;5075318;28;20131;-73
2023/03/05 06:11:56;;;;;;;8.35;1.00;;;6.40;99.90;;;;;;5057950;28;20476;-74
2023/03/05 06:14:22;;;;;;;6.30;1.02;;;6.40;99.90;;;;;;5094225;28;20096;-73
2023/03/05 06:16:47;;;;;;;7.78;1.00;;;6.40;99.90;;;;;;5078971;28;20039;-74
2023/03/05 06:19:14;;;;;;;5.47;1.00;;;6.40;99.90;;;;;;5078709;28;20469;-74
2023/03/05 06:21:42;;;;;;;7.07;1.02;;;6.30;99.90;;;;;;5096281;28;20078;-74
2023/03/05 06:24:08;;;;;;;8.57;1.08;;;6.40;99.90;;;;;;5096214;28;20050;-74
2023/03/05 06:26:34;;;;;;;7.53;1.00;;;6.40;99.90;;;;;;5077808;28;20024;-73
2023/03/05 06:29:00;;;;;;;7.43;0.80;;;6.40;99.90;;;;;;5077902;28;20032;-74
2023/03/05 06:31:28;;;;;;;5.93;1.13;;;6.40;99.90;;;;;;5074002;28;20053;-74
2023/03/05 06:33:56;;;;;;;5.45;0.75;;;6.50;99.90;;;;;;5058023;28;20036;-74
2023/03/05 06:36:24;;;;;;;4.05;0.88;;;6.50;99.90;;;;;;5074939;28;20342;-74
2023/03/05 06:38:50;;;;;;;8.23;0.80;;;6.50;99.90;;;;;;5075545;28;20563;-74
2023/03/05 06:41:19;;;;;;;4.97;0.60;;;6.50;99.90;;;;;;5074292;28;20028;-74
2023/03/05 06:43:47;;;;;;;8.40;0.90;;;6.40;99.90;;;;;;5075537;28;20035;-73
2023/03/05 06:46:17;;;;;;;5.28;0.70;;;6.40;99.90;;;;;;5074256;28;20514;-74
2023/03/05 06:48:43;;;;;;;7.13;1.85;;;6.40;99.90;;;;;;5075440;28;20048;-74
2023/03/05 06:51:20;;;;;;;1.92;0.52;;;6.40;99.90;;;;;;5074593;28;20434;-74
2023/03/05 06:53:47;;;;;;;5.10;0.70;;;6.40;99.90;;;;;;5075400;28;20037;-74
2023/03/05 06:56:15;;;;;;;7.70;1.02;;;6.40;99.90;;;;;;5074092;28;20032;-74
2023/03/05 06:58:42;;;;;;;3.70;0.93;;;6.40;99.90;;;;;;5075272;28;20020;-74
2023/03/05 07:01:08;;;;;;;6.05;0.77;;;6.40;99.90;;;;;;5075141;28;20033;-73
2023/03/05 07:03:35;;;;;;;6.88;0.90;;;6.40;99.90;;;;;;5074845;28;20045;-73
2023/03/05 07:06:06;;;;;;;5.45;1.00;;;6.30;99.90;;;;;;5057140;28;20393;-75
2023/03/05 07:08:32;;;;;;;5.72;1.00;;;6.30;99.90;;;;;;5075627;28;20027;-74
2023/03/05 07:10:58;;;;;;;3.58;0.63;;;6.20;99.90;;;;;;5074451;28;20135;-74
2023/03/05 07:13:24;;;;;;;6.60;1.00;;;6.20;99.90;;;;;;5073885;28;20032;-74
2023/03/05 07:15:49;;;;;;;6.75;1.10;;;6.20;99.90;;;;;;5073523;28;20048;-74
2023/03/05 07:18:15;;;;;;;6.38;1.08;;;6.20;99.90;;;;;;5073487;28;20064;-74
2023/03/05 07:20:41;;;;;;;7.97;0.90;;;6.20;99.90;;;;;;5073649;28;20029;-76
2023/03/05 07:23:06;;;;;;;6.53;0.75;;;6.20;99.90;;;;;;5073514;28;20032;-77
2023/03/05 07:25:35;;;;;;;9.63;1.20;;;6.30;99.90;;;;;;5073530;28;20040;-76
2023/03/05 07:28:01;;;;;;;7.65;1.20;;;6.40;99.90;;;;;;5074543;28;20025;-76
2023/03/05 07:30:27;;;;;;;5.47;1.00;;;6.50;99.90;;;;;;5073454;28;20025;-73
2023/03/05 07:32:53;;;;;;;5.72;0.90;;;6.60;99.90;;;;;;5094613;28;20054;-75
2023/03/05 07:35:18;;;;;;;6.38;1.13;;;6.70;99.90;;;;;;5076830;28;20039;-73
2023/03/05 07:37:44;;;;;;;6.15;1.10;;;6.70;99.90;;;;;;5076765;28;20036;-72
2023/03/05 07:40:10;;;;;;;4.63;1.10;;;6.80;99.90;;;;;;5077142;28;20383;-73
2023/03/05 07:42:36;;;;;;;5.68;1.25;;;6.90;99.90;;;;;;5059755;28;20445;-73
2023/03/05 07:45:01;;;;;;;4.32;1.00;;;7.00;99.90;;;;;;5076579;28;20043;-73
2023/03/05 07:47:27;;;;;;;5.43;0.77;;;7.00;99.90;;;;;;5059480;28;20032;-76
2023/03/05 07:49:53;;;;;;;5.97;0.70;;;7.10;99.90;;;;;;5059618;28;20024;-80
2023/03/05 07:52:18;;;;;;;4.75;0.73;;;7.10;99.90;;;;;;5076106;28;20054;-75
2023/03/05 07:54:44;;;;;;;9.32;1.15;;;7.10;99.90;;;;;;5060541;28;20028;-74
2023/03/05 07:57:12;;;;;;;4.65;0.77;;;7.10;99.90;;;;;;5095437;28;20376;-74
2023/03/05 07:59:38;;;;;;;4.32;0.80;;;7.10;99.90;;;;;;5061960;28;20115;-74
2023/03/05 08:02:04;;;;;;;5.50;0.90;;;7.10;99.90;;;;;;5079567;28;20067;-74
2023/03/05 08:04:30;;;;;;;7.85;1.15;;;7.20;99.90;;;;;;5081533;28;20039;-75
2023/03/05 08:06:57;;;;;;;4.40;0.60;;;7.20;99.90;;;;;;5066423;28;20028;-74
2023/03/05 08:09:23;;;;;;;3.78;1.17;;;7.30;99.90;;;;;;5082031;28;20028;-74
2023/03/05 08:11:48;;;;;;;3.17;0.85;;;7.30;99.90;;;;;;5081386;28;20108;-74
2023/03/05 08:14:14;;;;;;;5.10;1.02;;;7.30;99.90;;;;;;5097857;28;20492;-75
2023/03/05 08:16:40;;;;;;;7.97;0.93;;;7.40;99.90;;;;;;5062784;28;20449;-75
2023/03/05 08:19:05;;;;;;;4.35;1.10;;;7.40;99.90;;;;;;5078165;28;20028;-74
2023/03/05 08:21:33;;;;;;;6.15;1.58;;;7.50;99.90;;;;;;5076099;28;20429;-76
2023/03/05 08:24:02;;;;;;;5.60;1.33;;;7.50;99.90;;;;;;5094107;28;20063;-74
2023/03/05 08:26:30;;;;;;;4.85;1.17;;;7.50;99.90;;;;;;5094026;28;20086;-74
2023/03/05 08:28:56;;;;;;;4.38;1.13;;;7.50;99.90;;;;;;5076120;28;20046;-74
2023/03/05 08:31:24;;;;;;;5.97;1.13;;;7.50;99.90;;;;;;5093814;28;20499;-77
2023/03/05 08:33:51;;;;;;;4.53;1.05;;;7.50;99.90;;;;;;5076228;28;20043;-75
2023/03/05 08:36:17;;;;;;;4.85;1.23;;;7.60;99.90;;;;;;5093560;28;20024;-75
2023/03/05 08:38:45;;;;;;;4.63;1.13;;;7.60;99.90;;;;;;5075310;28;20112;-75
2023/03/05 08:41:11;;;;;;;8.07;1.23;;;7.70;99.90;;;;;;5075831;28;20035;-75
2023/03/05 08:43:37;;;;;;;5.25;0.60;;;7.80;99.90;;;;;;5058985;28;20494;-74
2023/03/05 08:46:03;;;;;;;14.02;2.95;;;7.80;99.90;;;;;;5075285;28;20176;-74
2023/03/05 08:48:30;;;;;;;7.28;1.40;;;7.80;99.90;;;;;;5058948;28;20024;-79
2023/03/05 08:51:14;;;;;;;7.57;1.20;;;7.80;99.90;;;;;;5093637;28;20020;-78
2023/03/05 08:53:40;;;;;;;21.30;3.38;;;7.80;99.90;;;;;;5061042;28;20036;-73
2023/03/05 08:56:07;;;;;;;43.05;5.03;;;7.90;99.90;;;;;;5093915;28;20034;-73
2023/03/05 08:58:32;;;;;;;25.85;4.13;;;8.00;99.90;;;;;;5075514;28;20033;-74
2023/03/05 09:00:58;;;;;;;6.78;0.82;;;8.10;99.90;;;;;;5093340;28;20460;-74
2023/03/05 09:03:24;;;;;;;17.55;2.53;;;8.10;99.90;;;;;;5093843;28;20032;-74
2023/03/05 09:05:50;;;;;;;19.60;3.00;;;8.10;99.90;;;;;;5075335;28;20055;-74
2023/03/05 09:08:16;;;;;;;15.02;2.03;;;8.20;99.90;;;;;;5075285;28;20115;-73
2023/03/05 09:10:44;;;;;;;8.88;1.63;;;8.30;99.90;;;;;;5093568;28;20035;-77
2023/03/05 09:13:10;;;;;;;9.85;1.25;;;8.30;99.90;;;;;;5074958;28;20032;-73
2023/03/05 09:15:36;;;;;;;13.13;1.85;;;8.20;99.30;;;;;;5058786;28;20039;-73
2023/03/05 09:18:02;;;;;;;6.05;0.80;;;8.20;99.50;;;;;;5075359;28;20039;-74
2023/03/05 09:20:27;;;;;;;7.82;1.85;;;8.20;99.70;;;;;;5093799;28;20380;-73
2023/03/05 09:22:53;;;;;;;11.07;1.63;;;8.30;99.90;;;;;;5075090;28;20032;-74
2023/03/05 09:25:19;;;;;;;9.38;1.63;;;8.30;99.80;;;;;;5074860;28;20042;-73
2023/03/05 09:27:45;;;;;;;8.27;1.20;;;8.30;99.90;;;;;;5093111;28;20020;-74
2023/03/05 09:30:12;;;;;;;5.78;0.70;;;8.30;99.90;;;;;;5075266;28;20457;-74
2023/03/05 09:32:37;;;;;;;4.45;0.70;;;8.40;99.60;;;;;;5093157;28;20040;-74
2023/03/05 09:35:04;;;;;;;6.28;0.90;;;8.50;99.20;;;;;;5097918;28;20054;-74
2023/03/05 09:37:30;;;;;;;4.97;0.60;;;8.50;99.00;;;;;;5084978;28;20077;-73
2023/03/05 09:39:56;;;;;;;6.45;0.52;;;8.50;98.50;;;;;;5084627;28;20028;-74
2023/03/05 09:42:53;;;;;;;2.75;0.65;;;8.50;98.50;;;;;;5102574;28;20032;-74
2023/03/05 09:45:29;;;;;;;6.20;0.82;;;8.50;98.50;;;;;;5084438;28;20448;-80
2023/03/05 09:48:13;;;;;;;4.57;0.60;;;8.50;98.50;;;;;;5084521;28;20025;-83
2023/03/05 09:51:05;;;;;;;4.22;0.73;;;8.60;98.60;;;;;;5087358;28;20024;-81
2023/03/05 09:53:58;;;;;;;3.92;0.68;;;8.60;98.00;;;;;;5105776;28;20128;-75
2023/03/05 09:56:47;;;;;;;4.80;0.85;;;8.60;97.70;;;;;;5092324;28;20127;-81
2023/03/05 09:59:22;;;;;;;7.65;0.65;;;8.60;97.90;;;;;;5090753;28;20030;-78
2023/03/05 10:01:50;;;;;;;4.78;0.57;;;8.60;97.90;;;;;;5088577;28;20024;-75
2023/03/05 10:04:44;;;;;;;4.47;0.75;;;8.60;97.50;;;;;;5084488;28;20036;-75
2023/03/05 10:07:19;;;;;;;4.70;0.60;;;8.70;97.40;;;;;;5100824;28;20048;-74
2023/03/05 10:10:11;;;;;;;2.75;0.40;;;8.60;97.20;;;;;;5078754;28;20031;-76
2023/03/05 10:12:45;;;;;;;2.83;0.50;;;8.70;96.70;;;;;;5096763;28;20471;-76
2023/03/05 10:15:19;;;;;;;2.15;0.40;;;8.70;96.30;;;;;;5096069;28;20032;-74
2023/03/05 10:18:13;;;;;;;3.38;0.45;;;8.60;96.40;;;;;;5078767;28;20027;-74
2023/03/05 10:20:56;;;;;;;3.50;0.50;;;8.50;96.40;;;;;;5078615;28;20133;-74
2023/03/05 10:23:45;;;;;;;4.03;0.50;;;8.40;96.30;;;;;;5096226;28;20024;-77
2023/03/05 10:26:43;;;;;;;6.53;0.40;;;8.40;96.60;;;;;;5078507;28;20026;-79
2023/03/05 10:29:36;;;;;;;3.83;0.30;;;8.40;96.80;;;;;;5095818;28;20530;-73
2023/03/05 10:32:01;;;;;;;5.88;0.43;;;8.50;96.80;;;;;;5095797;28;20048;-73
2023/03/05 10:34:31;;;;;;;3.13;0.50;;;8.40;96.30;;;;;;5077698;28;20472;-73
2023/03/05 10:37:18;;;;;;;3.10;0.38;;;8.40;96.00;;;;;;5096221;28;20436;-72
2023/03/05 10:40:19;;;;;;;6.32;0.70;;;8.40;96.10;;;;;;5095868;28;20032;-73
2023/03/05 10:43:00;;;;;;;2.75;0.30;;;8.30;96.10;;;;;;5077921;28;20024;-75
2023/03/05 10:45:29;;;;;;;6.22;0.80;;;8.30;96.20;;;;;;5095565;28;20148;-75
2023/03/05 10:48:10;;;;;;;3.95;0.40;;;8.30;95.60;;;;;;5077360;28;20052;-75
2023/03/05 10:50:41;;;;;;;2.97;0.60;;;8.30;95.40;;;;;;5077460;28;20035;-75
2023/03/05 10:53:36;;;;;;;2.67;0.30;;;8.20;95.50;;;;;;5076904;28;20032;-75
2023/03/05 10:56:04;;;;;;;4.80;0.40;;;8.20;95.70;;;;;;5077122;28;20028;-75
2023/03/05 10:58:30;;;;;;;2.97;0.30;;;8.30;95.50;;;;;;5095484;28;20028;-74
2023/03/05 11:01:08;;;;;;;2.55;0.28;;;8.30;95.20;;;;;;5060678;28;20039;-75
2023/03/05 11:03:58;;;;;;;3.55;0.20;;;8.30;95.20;;;;;;5077135;28;20031;-75
2023/03/05 11:06:35;;;;;;;2.25;0.30;;;8.30;95.50;;;;;;5077148;28;20024;-75
2023/03/05 11:09:27;;;;;;;3.53;0.63;;;8.30;95.60;;;;;;5077158;28;20024;-75
2023/03/05 11:12:13;;;;;;;4.72;0.82;;;8.40;95.90;;;;;;5077082;28;20123;-75
2023/03/05 11:14:43;;;;;;;2.75;0.20;;;8.50;96.00;;;;;;5076854;28;20380;-75
2023/03/05 11:17:33;;;;;;;2.80;0.20;;;8.50;95.60;;;;;;5095320;28;20031;-75
2023/03/05 11:20:33;;;;;;;3.03;0.30;;;8.60;94.90;;;;;;5077655;28;20023;-76
2023/03/05 11:23:03;;;;;;;4.53;0.57;;;8.80;94.10;;;;;;5077580;28;20103;-75
2023/03/05 11:25:30;;;;;;;2.03;0.40;;;9.00;93.90;;;;;;5094841;28;20103;-76
2023/03/05 11:27:57;;;;;;;3.92;0.40;;;9.20;94.10;;;;;;5077019;28;20139;-76
2023/03/05 11:30:28;;;;;;;4.65;0.40;;;9.20;93.40;;;;;;5076669;28;20122;-75
2023/03/05 11:33:08;;;;;;;1.75;0.30;;;9.20;92.80;;;;;;5094821;28;20035;-76
2023/03/05 11:35:37;;;;;;;2.83;0.60;;;9.10;93.10;;;;;;5076531;28;20030;-78
2023/03/05 11:38:05;;;;;;;4.25;0.63;;;9.10;93.10;;;;;;5094532;28;20056;-76
2023/03/05 11:40:36;;;;;;;2.95;0.30;;;9.20;92.60;;;;;;5094670;28;20052;-77
2023/03/05 11:43:03;;;;;;;3.72;0.40;;;9.20;92.80;;;;;;5077196;28;20511;-77
2023/03/05 11:45:31;;;;;;;4.03;0.32;;;9.30;92.80;;;;;;5077633;28;20115;-77
2023/03/05 11:48:16;;;;;;;2.38;0.30;;;9.30;93.20;;;;;;5096712;28;20063;-77
2023/03/05 11:50:44;;;;;;;3.33;0.40;;;9.40;93.10;;;;;;5078740;28;20496;-77
2023/03/05 11:53:19;;;;;;;1.48;0.40;;;9.40;93.40;;;;;;5077708;28;20032;-78
2023/03/05 11:55:49;;;;;;;4.47;0.35;;;9.50;92.60;;;;;;5076802;28;20032;-74
2023/03/05 11:58:49;;;;;;;2.67;0.20;;;9.50;91.90;;;;;;5094337;28;20024;-74
2023/03/05 12:01:22;;;;;;;0.88;0.20;;;9.40;91.90;;;;;;5094441;28;20042;-74
2023/03/05 12:03:49;;;;;;;3.45;1.20;;;9.40;92.10;;;;;;5076302;28;20055;-75
2023/03/05 12:06:37;;;;;;;3.05;0.20;;;9.20;91.90;;;;;;5075978;28;20059;-76
2023/03/05 12:09:16;;;;;;;3.08;0.30;;;9.10;91.90;;;;;;5094330;28;20031;-75
2023/03/05 12:11:42;;;;;;;5.72;0.32;;;9.00;91.10;;;;;;5075908;28;20411;-75
2023/03/05 12:14:26;;;;;;;2.28;0.20;;;9.00;91.10;;;;;;5075754;28;20135;-75
2023/03/05 12:17:07;;;;;;;3.58;0.30;;;9.00;90.90;;;;;;5075683;28;20028;-75
2023/03/05 12:19:48;;;;;;;2.35;0.30;;;9.00;90.70;;;;;;5093700;28;20016;-75
2023/03/05 12:22:21;;;;;;;1.63;0.20;;;9.00;91.10;;;;;;5076084;28;20107;-76
2023/03/05 12:24:47;;;;;;;1.85;0.30;;;9.00;91.30;;;;;;5093810;28;20028;-76
2023/03/05 12:27:16;;;;;;;2.00;0.35;;;9.00;90.90;;;;;;5075901;28;20030;-76
2023/03/05 12:29:46;;;;;;;3.13;0.28;;;9.00;91.30;;;;;;5075321;28;20028;-75
2023/03/05 12:32:24;;;;;;;2.20;0.30;;;9.00;91.10;;;;;;5093234;28;20044;-77
2023/03/05 12:35:21;;;;;;;2.53;0.30;;;9.10;91.30;;;;;;5075611;28;20369;-77
2023/03/05 12:37:50;;;;;;;3.17;0.25;;;9.10;91.20;;;;;;5093536;28;20028;-75
2023/03/05 12:40:30;;;;;;;3.17;0.40;;;9.10;91.00;;;;;;5093444;28;20016;-75
2023/03/05 12:42:58;;;;;;;2.88;0.30;;;9.10;91.10;;;;;;5093332;28;20333;-76
2023/03/05 12:45:28;;;;;;;1.27;0.30;;;9.10;90.90;;;;;;5093081;28;20462;-76
2023/03/05 12:47:54;;;;;;;3.55;0.30;;;9.10;90.80;;;;;;5075159;28;20468;-75
2023/03/05 12:50:26;;;;;;;4.05;0.32;;;9.10;90.70;;;;;;5075417;28;20020;-76
2023/03/05 12:53:19;;;;;;;2.55;0.30;;;9.10;90.60;;;;;;5074932;28;20059;-74
2023/03/05 12:56:20;;;;;;;2.63;0.38;;;9.00;90.00;;;;;;5090213;28;20032;-75
2023/03/05 12:58:50;;;;;;;3.28;0.30;;;9.00;90.10;;;;;;4994721;28;20131;-75
2023/03/05 13:01:33;;;;;;;1.65;0.20;;;9.00;90.20;;;;;;5078160;28;20036;-75
2023/03/05 13:04:06;;;;;;;3.70;0.20;;;9.00;90.00;;;;;;5092301;28;20102;-74
2023/03/05 13:06:34;;;;;;;2.15;0.22;;;9.00;90.30;;;;;;5093319;28;20051;-76
2023/03/05 13:09:03;;;;;;;3.42;0.20;;;9.00;90.40;;;;;;5075364;28;20028;-76